createdAt,value
2022-08-26T00:00:25.635Z,8.70
2022-08-26T00:01:29.844Z,8.40
2022-08-26T00:02:25.687Z,8.70
2022-08-26T00:03:25.593Z,9.10
2022-08-26T00:04:26.063Z,9.60
2022-08-26T00:05:25.574Z,9.30
2022-08-26T00:06:25.567Z,8.70
2022-08-26T00:07:25.556Z,8.70
2022-08-26T00:08:25.546Z,9.20
2022-08-26T00:09:25.559Z,9.90
2022-08-26T00:10:25.856Z,8.50
2022-08-26T00:11:26.272Z,8.40
2022-08-26T00:12:27.887Z,8.90
2022-08-26T00:13:26.488Z,9.60
2022-08-26T00:14:29.664Z,9.10
2022-08-26T00:15:26.468Z,9.10
2022-08-26T00:16:25.506Z,8.50
2022-08-26T00:17:25.449Z,8.70
2022-08-26T00:18:25.448Z,8.60
2022-08-26T00:19:25.434Z,8.60
2022-08-26T00:20:25.460Z,8.70
2022-08-26T00:21:25.425Z,9.00
2022-08-26T00:22:25.402Z,8.90
2022-08-26T00:23:25.402Z,8.50
2022-08-26T00:24:25.427Z,9.10
2022-08-26T00:25:25.392Z,9.30
2022-08-26T00:26:25.363Z,9.50
2022-08-26T00:27:25.353Z,8.90
2022-08-26T00:28:25.344Z,9.80
2022-08-26T00:29:25.338Z,9.10
2022-08-26T00:30:26.672Z,9.20
2022-08-26T00:31:25.377Z,9.20
2022-08-26T00:32:25.305Z,8.60
2022-08-26T00:33:25.300Z,8.50
2022-08-26T00:34:25.317Z,8.40
2022-08-26T00:35:25.286Z,8.90
2022-08-26T00:36:25.258Z,9.10
2022-08-26T00:37:25.257Z,8.70
2022-08-26T00:38:25.242Z,9.20
2022-08-26T00:39:25.237Z,9.00
2022-08-26T00:40:25.393Z,9.50
2022-08-26T00:41:25.219Z,9.40
2022-08-26T00:42:25.202Z,8.70
2022-08-26T00:43:25.200Z,8.40
2022-08-26T00:44:25.180Z,9.40
2022-08-26T00:45:25.274Z,9.40
2022-08-26T00:46:25.166Z,9.40
2022-08-26T00:47:25.165Z,9.20
2022-08-26T00:48:25.141Z,9.40
2022-08-26T00:49:25.140Z,8.50
2022-08-26T00:50:25.151Z,9.40
2022-08-26T00:51:25.123Z,9.20
2022-08-26T00:52:25.105Z,8.20
2022-08-26T00:53:27.804Z,8.80
2022-08-26T00:54:27.033Z,9.20
2022-08-26T00:55:25.105Z,8.90
2022-08-26T00:56:26.067Z,9.20
2022-08-26T00:57:25.057Z,9.00
2022-08-26T00:58:25.049Z,9.20
2022-08-26T00:59:25.037Z,9.40
2022-08-26T01:00:25.048Z,9.40
2022-08-26T01:01:25.073Z,9.80
2022-08-26T01:02:25.051Z,8.60
2022-08-26T01:03:24.998Z,9.40
2022-08-26T01:04:26.122Z,9.50
2022-08-26T01:05:25.005Z,9.70
2022-08-26T01:06:24.967Z,8.40
2022-08-26T01:07:24.961Z,9.40
2022-08-26T01:08:24.948Z,9.20
2022-08-26T01:09:24.942Z,10.00
2022-08-26T01:10:24.952Z,9.70
2022-08-26T01:11:24.930Z,9.70
2022-08-26T01:12:24.903Z,9.70
2022-08-26T01:13:24.902Z,9.70
2022-08-26T01:14:24.884Z,9.10
2022-08-26T01:15:24.913Z,8.50
2022-08-26T01:16:24.916Z,9.70
2022-08-26T01:17:24.875Z,9.40
2022-08-26T01:18:24.852Z,8.70
2022-08-26T01:19:24.843Z,9.70
2022-08-26T01:20:24.865Z,8.90
2022-08-26T01:21:24.830Z,9.30
2022-08-26T01:22:28.297Z,9.90
2022-08-26T01:23:24.807Z,9.40
2022-08-26T01:24:24.787Z,8.70
2022-08-26T01:25:24.806Z,9.60
2022-08-26T01:26:24.769Z,9.30
2022-08-26T01:27:24.779Z,9.40
2022-08-26T01:28:24.749Z,10.30
2022-08-26T01:29:24.745Z,9.80
2022-08-26T01:30:24.762Z,9.70
2022-08-26T01:31:24.782Z,9.50
2022-08-26T01:32:24.712Z,9.70
2022-08-26T01:33:24.700Z,9.40
2022-08-26T01:34:24.681Z,9.50
2022-08-26T01:35:24.711Z,8.90
2022-08-26T01:36:24.674Z,9.30
2022-08-26T01:37:24.673Z,9.60
2022-08-26T01:38:24.653Z,9.70
2022-08-26T01:39:24.642Z,9.40
2022-08-26T01:40:24.696Z,9.90
2022-08-26T01:41:27.513Z,9.50
2022-08-26T01:42:24.614Z,9.60
2022-08-26T01:43:24.595Z,9.70
2022-08-26T01:44:24.585Z,9.20
2022-08-26T01:45:24.632Z,9.30
2022-08-26T01:46:24.566Z,10.10
2022-08-26T01:47:24.557Z,9.80
2022-08-26T01:48:24.544Z,9.90
2022-08-26T01:49:24.537Z,10.40
2022-08-26T01:50:27.856Z,10.70
2022-08-26T01:51:25.526Z,10.30
2022-08-26T01:52:24.506Z,9.80
2022-08-26T01:53:24.498Z,9.80
2022-08-26T01:54:24.480Z,9.90
2022-08-26T01:55:33.409Z,10.10
2022-08-26T01:56:25.460Z,9.60
2022-08-26T01:57:25.452Z,9.20
2022-08-26T01:58:24.443Z,10.40
2022-08-26T01:59:24.432Z,10.40
2022-08-26T02:00:24.460Z,9.70
2022-08-26T02:01:24.451Z,9.60
2022-08-26T02:02:24.528Z,10.00
2022-08-26T02:03:24.445Z,10.40
2022-08-26T02:04:24.488Z,10.00
2022-08-26T02:05:24.395Z,10.70
2022-08-26T02:06:24.356Z,10.30
2022-08-26T02:07:24.367Z,9.30
2022-08-26T02:08:25.006Z,9.90
2022-08-26T02:09:24.333Z,9.30
2022-08-26T02:10:24.344Z,10.00
2022-08-26T02:11:24.320Z,10.10
2022-08-26T02:12:24.306Z,10.10
2022-08-26T02:13:24.328Z,10.60
2022-08-26T02:14:24.279Z,10.90
2022-08-26T02:15:24.296Z,10.50
2022-08-26T02:16:24.293Z,10.30
2022-08-26T02:17:24.249Z,11.50
2022-08-26T02:18:24.240Z,10.80
2022-08-26T02:19:24.231Z,9.60
2022-08-26T02:20:26.437Z,11.20
2022-08-26T02:21:24.890Z,10.80
2022-08-26T02:22:24.501Z,11.20
2022-08-26T02:23:24.434Z,11.50
2022-08-26T02:24:24.172Z,10.50
2022-08-26T02:25:24.202Z,10.00
2022-08-26T02:26:24.152Z,11.00
2022-08-26T02:27:24.152Z,11.20
2022-08-26T02:28:26.659Z,11.10
2022-08-26T02:29:24.131Z,11.00
2022-08-26T02:30:24.137Z,10.90
2022-08-26T02:31:24.193Z,10.60
2022-08-26T02:32:24.094Z,11.60
2022-08-26T02:33:24.096Z,10.90
2022-08-26T02:34:24.066Z,10.50
2022-08-26T02:35:24.087Z,10.30
2022-08-26T02:36:24.056Z,11.10
2022-08-26T02:37:24.046Z,11.40
2022-08-26T02:38:24.028Z,11.00
2022-08-26T02:39:24.030Z,11.00
2022-08-26T02:40:24.100Z,11.20
2022-08-26T02:41:24.008Z,10.80
2022-08-26T02:42:23.989Z,10.90
2022-08-26T02:43:31.719Z,11.90
2022-08-26T02:44:24.969Z,10.50
2022-08-26T02:45:23.994Z,11.10
2022-08-26T02:46:29.986Z,10.80
2022-08-26T02:47:24.987Z,12.10
2022-08-26T02:48:23.933Z,10.80
2022-08-26T02:49:23.922Z,11.10
2022-08-26T02:50:23.934Z,11.20
2022-08-26T02:51:23.903Z,10.60
2022-08-26T02:52:23.886Z,11.30
2022-08-26T02:53:25.440Z,11.80
2022-08-26T02:54:23.864Z,11.10
2022-08-26T02:55:24.725Z,11.10
2022-08-26T02:56:23.845Z,10.50
2022-08-26T02:57:23.844Z,10.90
2022-08-26T02:58:23.835Z,10.90
2022-08-26T02:59:24.375Z,12.00
2022-08-26T03:00:23.912Z,12.20
2022-08-26T03:01:23.886Z,11.40
2022-08-26T03:02:23.850Z,10.90
2022-08-26T03:03:23.899Z,11.70
2022-08-26T03:04:23.773Z,11.20
2022-08-26T03:05:23.997Z,11.10
2022-08-26T03:06:23.740Z,11.40
2022-08-26T03:07:23.740Z,11.20
2022-08-26T03:08:23.739Z,10.50
2022-08-26T03:09:23.731Z,10.30
2022-08-26T03:10:23.722Z,11.10
2022-08-26T03:11:23.727Z,11.50
2022-08-26T03:12:23.681Z,12.00
2022-08-26T03:13:23.686Z,11.10
2022-08-26T03:14:23.665Z,11.10
2022-08-26T03:15:23.682Z,11.50
2022-08-26T03:16:23.759Z,11.70
2022-08-26T03:17:23.648Z,11.40
2022-08-26T03:18:23.623Z,11.50
2022-08-26T03:19:23.614Z,11.50
2022-08-26T03:20:23.625Z,11.10
2022-08-26T03:21:23.596Z,11.00
2022-08-26T03:22:23.583Z,10.40
2022-08-26T03:23:23.576Z,11.40
2022-08-26T03:24:24.559Z,11.20
2022-08-26T03:25:23.585Z,11.10
2022-08-26T03:26:23.546Z,11.40
2022-08-26T03:27:23.552Z,11.20
2022-08-26T03:28:23.518Z,11.20
2022-08-26T03:29:23.518Z,11.40
2022-08-26T03:30:23.534Z,11.10
2022-08-26T03:31:24.600Z,11.10
2022-08-26T03:32:23.480Z,10.60
2022-08-26T03:33:23.479Z,11.00
2022-08-26T03:34:23.460Z,11.30
2022-08-26T03:35:23.480Z,10.70
2022-08-26T03:36:23.439Z,12.00
2022-08-26T03:37:23.441Z,11.50
2022-08-26T03:38:23.424Z,10.60
2022-08-26T03:39:23.411Z,11.20
2022-08-26T03:40:23.502Z,10.70
2022-08-26T03:41:23.395Z,11.90
2022-08-26T03:42:23.373Z,12.10
2022-08-26T03:43:23.375Z,11.60
2022-08-26T03:44:23.356Z,11.40
2022-08-26T03:45:23.379Z,11.70
2022-08-26T03:46:23.370Z,10.70
2022-08-26T03:47:23.339Z,11.60
2022-08-26T03:48:23.316Z,11.20
2022-08-26T03:49:23.317Z,11.10
2022-08-26T03:50:24.362Z,12.10
2022-08-26T03:51:23.307Z,12.20
2022-08-26T03:52:23.278Z,11.80
2022-08-26T03:53:23.290Z,12.30
2022-08-26T03:54:23.258Z,12.20
2022-08-26T03:55:23.641Z,11.90
2022-08-26T03:56:23.239Z,11.80
2022-08-26T03:57:23.230Z,12.60
2022-08-26T03:58:23.219Z,11.60
2022-08-26T03:59:23.162Z,12.20
2022-08-26T04:00:23.223Z,11.00
2022-08-26T04:01:23.218Z,12.40
2022-08-26T04:02:23.220Z,12.40
2022-08-26T04:03:23.223Z,13.20
2022-08-26T04:04:24.545Z,11.40
2022-08-26T04:05:23.138Z,12.10
2022-08-26T04:06:23.133Z,12.50
2022-08-26T04:07:23.124Z,11.60
2022-08-26T04:08:23.074Z,11.40
2022-08-26T04:09:23.064Z,12.50
2022-08-26T04:10:23.065Z,11.40
2022-08-26T04:11:24.034Z,11.90
2022-08-26T04:12:23.036Z,11.40
2022-08-26T04:13:23.017Z,11.40
2022-08-26T04:14:22.997Z,12.10
2022-08-26T04:15:23.017Z,11.80
2022-08-26T04:16:23.017Z,11.90
2022-08-26T04:17:24.996Z,10.90
2022-08-26T04:18:22.963Z,12.50
2022-08-26T04:19:22.957Z,11.20
2022-08-26T04:20:22.992Z,12.20
2022-08-26T04:21:22.953Z,12.00
2022-08-26T04:22:24.899Z,11.10
2022-08-26T04:23:22.909Z,11.60
2022-08-26T04:24:22.890Z,11.40
2022-08-26T04:25:24.218Z,12.50
2022-08-26T04:26:22.887Z,12.50
2022-08-26T04:27:22.871Z,11.50
2022-08-26T04:28:22.866Z,12.10
2022-08-26T04:29:22.853Z,12.00
2022-08-26T04:30:22.872Z,13.40
2022-08-26T04:31:22.862Z,11.70
2022-08-26T04:32:22.814Z,12.30
2022-08-26T04:33:33.078Z,11.40
2022-08-26T04:34:23.795Z,12.40
2022-08-26T04:35:25.626Z,12.30
2022-08-26T04:36:22.777Z,12.90
2022-08-26T04:37:22.769Z,12.00
2022-08-26T04:38:22.757Z,12.70
2022-08-26T04:39:22.746Z,12.60
2022-08-26T04:40:22.814Z,12.50
2022-08-26T04:41:22.729Z,12.60
2022-08-26T04:42:26.084Z,13.60
2022-08-26T04:43:22.709Z,12.20
2022-08-26T04:44:22.698Z,13.10
2022-08-26T04:45:23.024Z,12.40
2022-08-26T04:46:22.748Z,12.80
2022-08-26T04:47:22.660Z,12.50
2022-08-26T04:48:22.658Z,13.40
2022-08-26T04:49:22.641Z,12.50
2022-08-26T04:50:22.639Z,13.10
2022-08-26T04:51:22.649Z,13.00
2022-08-26T04:52:22.618Z,12.70
2022-08-26T04:53:22.601Z,12.60
2022-08-26T04:54:22.593Z,11.70
2022-08-26T04:55:25.327Z,12.30
2022-08-26T04:56:23.603Z,12.80
2022-08-26T04:57:22.564Z,12.60
2022-08-26T04:58:22.562Z,12.00
2022-08-26T04:59:22.544Z,14.30
2022-08-26T05:00:22.535Z,12.50
2022-08-26T05:01:22.571Z,11.60
2022-08-26T05:02:22.516Z,11.90
2022-08-26T05:03:22.517Z,13.00
2022-08-26T05:04:22.541Z,12.30
2022-08-26T05:05:22.477Z,12.90
2022-08-26T05:06:22.499Z,12.10
2022-08-26T05:07:22.466Z,11.50
2022-08-26T05:08:22.449Z,11.90
2022-08-26T05:09:22.446Z,13.20
2022-08-26T05:10:22.435Z,11.50
2022-08-26T05:11:22.449Z,12.20
2022-08-26T05:12:22.410Z,12.00
2022-08-26T05:13:22.400Z,11.70
2022-08-26T05:14:22.403Z,12.70
2022-08-26T05:15:22.378Z,11.80
2022-08-26T05:16:22.461Z,12.40
2022-08-26T05:17:22.352Z,12.30
2022-08-26T05:18:22.709Z,12.10
2022-08-26T05:19:22.333Z,12.40
2022-08-26T05:20:26.129Z,12.10
2022-08-26T05:21:22.340Z,12.00
2022-08-26T05:22:22.314Z,12.20
2022-08-26T05:23:22.303Z,12.40
2022-08-26T05:24:22.292Z,12.90
2022-08-26T05:25:22.306Z,13.20
2022-08-26T05:26:23.209Z,14.00
2022-08-26T05:27:22.255Z,14.00
2022-08-26T05:28:22.247Z,14.20
2022-08-26T05:29:22.239Z,14.20
2022-08-26T05:30:22.227Z,14.70
2022-08-26T05:31:22.265Z,13.60
2022-08-26T05:32:22.237Z,14.50
2022-08-26T05:33:22.196Z,14.70
2022-08-26T05:34:22.189Z,14.80
2022-08-26T05:35:22.168Z,14.30
2022-08-26T05:36:22.199Z,14.70
2022-08-26T05:37:22.149Z,13.20
2022-08-26T05:38:22.149Z,15.10
2022-08-26T05:39:22.130Z,14.40
2022-08-26T05:40:22.146Z,14.50
2022-08-26T05:41:22.140Z,12.80
2022-08-26T05:42:22.107Z,14.40
2022-08-26T05:43:22.091Z,14.80
2022-08-26T05:44:22.364Z,13.40
2022-08-26T05:45:22.074Z,14.40
2022-08-26T05:46:22.139Z,14.70
2022-08-26T05:47:22.044Z,14.20
2022-08-26T05:48:22.853Z,14.50
2022-08-26T05:49:22.504Z,14.70
2022-08-26T05:50:22.024Z,13.60
2022-08-26T05:51:25.884Z,13.90
2022-08-26T05:52:22.004Z,14.00
2022-08-26T05:53:21.992Z,13.70
2022-08-26T05:54:22.568Z,14.00
2022-08-26T05:55:21.976Z,13.80
2022-08-26T05:56:21.986Z,15.30
2022-08-26T05:57:23.242Z,14.00
2022-08-26T05:58:21.940Z,14.60
2022-08-26T05:59:24.588Z,14.20
2022-08-26T06:00:21.920Z,14.60
2022-08-26T06:01:21.970Z,15.00
2022-08-26T06:02:21.930Z,14.60
2022-08-26T06:03:21.888Z,15.20
2022-08-26T06:04:21.880Z,15.60
2022-08-26T06:05:21.861Z,15.10
2022-08-26T06:06:27.208Z,14.50
2022-08-26T06:07:22.843Z,14.60
2022-08-26T06:08:21.841Z,15.30
2022-08-26T06:09:21.823Z,14.20
2022-08-26T06:10:32.130Z,15.10
2022-08-26T06:11:22.833Z,15.20
2022-08-26T06:12:21.802Z,15.30
2022-08-26T06:13:21.785Z,14.30
2022-08-26T06:14:21.777Z,14.50
2022-08-26T06:15:21.775Z,14.80
2022-08-26T06:16:21.805Z,14.70
2022-08-26T06:17:21.746Z,14.50
2022-08-26T06:18:21.744Z,15.10
2022-08-26T06:19:22.144Z,14.40
2022-08-26T06:20:21.746Z,14.10
2022-08-26T06:21:21.727Z,14.30
2022-08-26T06:22:23.526Z,14.30
2022-08-26T06:23:21.679Z,13.60
2022-08-26T06:24:21.741Z,14.90
2022-08-26T06:25:22.670Z,14.10
2022-08-26T06:26:21.683Z,14.30
2022-08-26T06:27:21.650Z,15.30
2022-08-26T06:28:21.641Z,14.70
2022-08-26T06:29:24.526Z,14.60
2022-08-26T06:30:21.620Z,14.70
2022-08-26T06:31:21.698Z,15.50
2022-08-26T06:32:21.592Z,14.50
2022-08-26T06:33:21.601Z,15.00
2022-08-26T06:34:21.573Z,15.40
2022-08-26T06:35:21.560Z,16.10
2022-08-26T06:36:21.595Z,15.80
2022-08-26T06:37:21.545Z,15.80
2022-08-26T06:38:21.542Z,15.10
2022-08-26T06:39:21.524Z,14.20
2022-08-26T06:40:21.570Z,14.80
2022-08-26T06:41:21.536Z,14.20
2022-08-26T06:42:21.497Z,15.20
2022-08-26T06:43:21.476Z,14.30
2022-08-26T06:44:21.479Z,16.00
2022-08-26T06:45:21.467Z,13.10
2022-08-26T06:46:21.550Z,14.40
2022-08-26T06:47:21.438Z,14.00
2022-08-26T06:48:21.450Z,13.70
2022-08-26T06:49:25.739Z,13.60
2022-08-26T06:50:22.423Z,14.00
2022-08-26T06:51:22.370Z,14.00
2022-08-26T06:52:24.628Z,14.30
2022-08-26T06:53:21.371Z,12.70
2022-08-26T06:54:21.385Z,13.60
2022-08-26T06:55:21.361Z,13.70
2022-08-26T06:56:22.375Z,13.60
2022-08-26T06:57:21.342Z,13.40
2022-08-26T06:58:21.333Z,13.60
2022-08-26T06:59:21.314Z,13.90
2022-08-26T07:00:21.313Z,13.30
2022-08-26T07:01:21.398Z,14.10
2022-08-26T07:02:21.327Z,13.60
2022-08-26T07:03:21.274Z,13.80
2022-08-26T07:04:21.916Z,13.20
2022-08-26T07:05:21.255Z,12.90
2022-08-26T07:06:21.295Z,13.40
2022-08-26T07:07:22.001Z,14.40
2022-08-26T07:08:21.228Z,13.80
2022-08-26T07:09:21.281Z,13.70
2022-08-26T07:10:22.244Z,13.40
2022-08-26T07:11:21.218Z,13.70
2022-08-26T07:12:21.193Z,14.30
2022-08-26T07:13:30.514Z,13.10
2022-08-26T07:14:22.181Z,13.10
2022-08-26T07:15:23.893Z,14.00
2022-08-26T07:16:22.193Z,12.90
2022-08-26T07:17:21.130Z,14.40
2022-08-26T07:18:21.782Z,13.30
2022-08-26T07:19:21.164Z,14.90
2022-08-26T07:20:22.161Z,14.80
2022-08-26T07:21:21.114Z,14.10
2022-08-26T07:22:21.084Z,15.10
2022-08-26T07:23:21.073Z,14.20
2022-08-26T07:24:21.064Z,13.60
2022-08-26T07:25:21.054Z,14.30
2022-08-26T07:26:21.074Z,14.50
2022-08-26T07:27:21.053Z,13.80
2022-08-26T07:28:21.061Z,13.60
2022-08-26T07:29:21.007Z,15.10
2022-08-26T07:30:21.006Z,13.80
2022-08-26T07:31:21.038Z,13.80
2022-08-26T07:32:20.987Z,13.70
2022-08-26T07:33:20.972Z,14.70
2022-08-26T07:34:20.959Z,14.00
2022-08-26T07:35:20.948Z,14.00
2022-08-26T07:36:20.968Z,13.40
2022-08-26T07:37:20.929Z,13.80
2022-08-26T07:38:20.942Z,15.10
2022-08-26T07:39:20.921Z,13.70
2022-08-26T07:40:20.938Z,13.70
2022-08-26T07:41:20.953Z,14.00
2022-08-26T07:42:20.882Z,13.90
2022-08-26T07:43:20.872Z,14.10
2022-08-26T07:44:20.864Z,14.00
2022-08-26T07:45:20.853Z,13.50
2022-08-26T07:46:29.905Z,13.60
2022-08-26T07:47:25.859Z,13.50
2022-08-26T07:48:21.444Z,14.30
2022-08-26T07:49:20.920Z,14.40
2022-08-26T07:50:20.899Z,13.50
2022-08-26T07:51:21.788Z,13.90
2022-08-26T07:52:25.998Z,14.00
2022-08-26T07:53:21.767Z,13.50
2022-08-26T07:54:20.757Z,14.20
2022-08-26T07:55:21.756Z,13.40
2022-08-26T07:56:20.748Z,14.10
2022-08-26T07:57:20.748Z,12.80
2022-08-26T07:58:20.719Z,14.20
2022-08-26T07:59:20.717Z,14.10
2022-08-26T08:00:20.766Z,13.20
2022-08-26T08:01:20.769Z,13.60
2022-08-26T08:02:20.704Z,13.40
2022-08-26T08:03:20.667Z,13.40
2022-08-26T08:04:26.240Z,13.30
2022-08-26T08:05:21.786Z,13.10
2022-08-26T08:06:20.643Z,13.10
2022-08-26T08:07:20.652Z,13.20
2022-08-26T08:08:27.771Z,12.50
2022-08-26T08:09:22.379Z,13.60
2022-08-26T08:10:20.826Z,12.80
2022-08-26T08:11:20.624Z,13.10
2022-08-26T08:12:20.636Z,12.20
2022-08-26T08:13:20.566Z,12.20
2022-08-26T08:14:22.225Z,13.60
2022-08-26T08:15:20.547Z,12.90
2022-08-26T08:16:20.583Z,13.70
2022-08-26T08:17:20.547Z,13.90
2022-08-26T08:18:20.764Z,13.20
2022-08-26T08:19:20.509Z,13.20
2022-08-26T08:20:20.509Z,13.30
2022-08-26T08:21:21.628Z,13.70
2022-08-26T08:22:20.511Z,14.10
2022-08-26T08:23:20.469Z,12.90
2022-08-26T08:24:20.461Z,13.90
2022-08-26T08:25:20.452Z,13.60
2022-08-26T08:26:20.468Z,13.40
2022-08-26T08:27:23.793Z,13.00
2022-08-26T08:28:20.427Z,13.10
2022-08-26T08:29:20.411Z,12.90
2022-08-26T08:30:22.686Z,12.50
2022-08-26T08:31:38.777Z,13.60
2022-08-26T08:32:21.391Z,12.80
2022-08-26T08:33:20.363Z,12.90
2022-08-26T08:34:21.618Z,12.20
2022-08-26T08:35:20.354Z,12.90
2022-08-26T08:36:20.535Z,13.10
2022-08-26T08:37:20.326Z,12.70
2022-08-26T08:38:20.322Z,13.30
2022-08-26T08:39:20.311Z,13.30
2022-08-26T08:40:20.482Z,12.40
2022-08-26T08:41:20.317Z,12.40
2022-08-26T08:42:20.288Z,12.50
2022-08-26T08:43:20.269Z,11.70
2022-08-26T08:44:20.347Z,11.70
2022-08-26T08:45:20.252Z,12.00
2022-08-26T08:46:20.328Z,11.50
2022-08-26T08:47:20.754Z,11.70
2022-08-26T08:48:20.263Z,12.60
2022-08-26T08:49:20.210Z,12.00
2022-08-26T08:50:20.214Z,12.40
2022-08-26T08:51:20.184Z,12.00
2022-08-26T08:52:20.253Z,11.30
2022-08-26T08:53:20.174Z,10.90
2022-08-26T08:54:21.989Z,11.50
2022-08-26T08:55:20.154Z,10.40
2022-08-26T08:56:20.212Z,11.40
2022-08-26T08:57:20.156Z,11.10
2022-08-26T08:58:20.125Z,11.50
2022-08-26T08:59:20.117Z,10.90
2022-08-26T09:00:20.106Z,10.30
2022-08-26T09:01:21.164Z,11.00
2022-08-26T09:02:20.188Z,10.90
2022-08-26T09:03:20.079Z,11.40
2022-08-26T09:04:20.060Z,10.80
2022-08-26T09:05:20.070Z,10.90
2022-08-26T09:06:20.077Z,10.40
2022-08-26T09:07:20.070Z,11.10
2022-08-26T09:08:20.117Z,10.10
2022-08-26T09:09:20.024Z,10.80
2022-08-26T09:10:20.012Z,10.70
2022-08-26T09:11:20.027Z,10.00
2022-08-26T09:12:20.011Z,9.50
2022-08-26T09:13:25.234Z,9.90
2022-08-26T09:14:20.965Z,9.90
2022-08-26T09:15:19.963Z,9.80
2022-08-26T09:16:20.258Z,9.60
2022-08-26T09:17:19.976Z,10.00
2022-08-26T09:18:19.955Z,9.10
2022-08-26T09:19:19.926Z,9.20
2022-08-26T09:20:19.926Z,9.00
2022-08-26T09:21:19.913Z,9.10
2022-08-26T09:22:19.919Z,8.50
2022-08-26T09:23:19.889Z,8.50
2022-08-26T09:24:19.889Z,9.80
2022-08-26T09:25:19.901Z,8.90
2022-08-26T09:26:19.859Z,9.60
2022-08-26T09:27:19.907Z,9.20
2022-08-26T09:28:19.853Z,9.50
2022-08-26T09:30:19.831Z,9.50
2022-08-26T09:31:19.835Z,8.30
2022-08-26T09:32:21.090Z,7.70
2022-08-26T09:33:19.832Z,7.40
2022-08-26T09:34:19.786Z,6.40
2022-08-26T09:35:19.775Z,7.20
2022-08-26T09:36:19.775Z,7.00
2022-08-26T09:37:19.778Z,6.90
2022-08-26T09:38:19.746Z,7.40
2022-08-26T09:39:19.747Z,6.60
2022-08-26T09:40:20.379Z,6.90
2022-08-26T09:41:19.720Z,6.80
2022-08-26T09:42:19.747Z,7.10
2022-08-26T09:43:22.821Z,7.00
2022-08-26T09:44:19.691Z,6.90
2022-08-26T09:45:19.693Z,6.60
2022-08-26T09:46:19.825Z,7.20
2022-08-26T09:47:19.690Z,6.80
2022-08-26T09:48:19.651Z,6.90
2022-08-26T09:49:19.649Z,6.70
2022-08-26T09:50:19.630Z,6.80
2022-08-26T09:51:19.641Z,6.50
2022-08-26T09:52:19.643Z,6.60
2022-08-26T09:53:21.045Z,6.30
2022-08-26T09:54:20.753Z,5.90
2022-08-26T09:55:19.592Z,5.60
2022-08-26T09:56:19.604Z,6.60
2022-08-26T09:57:19.572Z,5.20
2022-08-26T09:58:19.562Z,5.60
2022-08-26T09:59:19.557Z,5.30
2022-08-26T10:00:19.547Z,5.40
2022-08-26T10:01:19.644Z,5.30
2022-08-26T10:02:19.545Z,4.90
2022-08-26T10:03:19.531Z,5.10
2022-08-26T10:04:19.534Z,5.50
2022-08-26T10:05:20.046Z,5.50
2022-08-26T10:06:21.008Z,5.30
2022-08-26T10:07:19.481Z,5.90
2022-08-26T10:08:19.470Z,5.20
2022-08-26T10:09:19.472Z,5.40
2022-08-26T10:10:19.452Z,5.90
2022-08-26T10:11:19.452Z,5.30
2022-08-26T10:12:19.454Z,5.00
2022-08-26T10:13:19.423Z,5.80
2022-08-26T10:14:20.281Z,5.30
2022-08-26T10:15:19.411Z,5.00
2022-08-26T10:16:19.415Z,5.50
2022-08-26T10:17:19.414Z,5.60
2022-08-26T10:18:19.395Z,5.20
2022-08-26T10:19:19.375Z,5.60
2022-08-26T10:20:23.169Z,5.10
2022-08-26T10:21:19.357Z,5.70
2022-08-26T10:22:19.367Z,5.40
2022-08-26T10:23:19.340Z,5.80
2022-08-26T10:24:19.326Z,5.30
2022-08-26T10:25:19.324Z,5.90
2022-08-26T10:26:19.305Z,5.80
2022-08-26T10:27:19.320Z,5.90
2022-08-26T10:28:19.293Z,6.50
2022-08-26T10:29:19.281Z,6.20
2022-08-26T10:30:19.271Z,5.70
2022-08-26T10:31:19.964Z,5.70
2022-08-26T10:32:19.397Z,5.30
2022-08-26T10:33:19.252Z,5.50
2022-08-26T10:34:19.240Z,6.10
2022-08-26T10:35:19.233Z,6.00
2022-08-26T10:36:20.289Z,5.50
2022-08-26T10:37:19.243Z,5.50
2022-08-26T10:38:19.195Z,6.10
2022-08-26T10:39:19.197Z,5.50
2022-08-26T10:40:19.223Z,5.60
2022-08-26T10:41:19.179Z,5.30
2022-08-26T10:42:19.188Z,5.70
2022-08-26T10:43:19.155Z,5.70
2022-08-26T10:44:19.147Z,5.70
2022-08-26T10:45:19.136Z,6.00
2022-08-26T10:46:19.155Z,6.20
2022-08-26T10:47:19.139Z,6.70
2022-08-26T10:48:19.108Z,6.60
2022-08-26T10:49:19.100Z,6.10
2022-08-26T10:50:19.082Z,6.20
2022-08-26T10:51:19.081Z,6.60
2022-08-26T10:52:19.091Z,5.90
2022-08-26T10:53:19.072Z,5.90
2022-08-26T10:54:20.063Z,5.60
2022-08-26T10:55:19.072Z,6.10
2022-08-26T10:56:19.433Z,6.00
2022-08-26T10:57:19.073Z,5.60
2022-08-26T10:58:26.428Z,5.70
2022-08-26T10:59:20.015Z,5.70
2022-08-26T11:00:19.011Z,6.30
2022-08-26T11:01:22.992Z,5.60
2022-08-26T11:02:24.185Z,5.80
2022-08-26T11:03:22.495Z,6.40
2022-08-26T11:04:19.021Z,5.30
2022-08-26T11:05:18.956Z,5.80
2022-08-26T11:06:18.944Z,5.90
2022-08-26T11:07:18.959Z,5.70
2022-08-26T11:08:18.930Z,6.00
2022-08-26T11:09:18.920Z,6.00
2022-08-26T11:10:19.945Z,5.20
2022-08-26T11:11:18.901Z,6.00
2022-08-26T11:12:18.911Z,5.50
2022-08-26T11:13:18.881Z,5.50
2022-08-26T11:14:18.871Z,5.00
2022-08-26T11:15:19.866Z,5.50
2022-08-26T11:16:19.882Z,4.70
2022-08-26T11:17:18.873Z,5.20
2022-08-26T11:18:18.834Z,5.50
2022-08-26T11:19:18.834Z,5.50
2022-08-26T11:20:19.823Z,4.60
2022-08-26T11:21:18.822Z,5.10
2022-08-26T11:22:19.853Z,5.10
2022-08-26T11:23:18.795Z,4.80
2022-08-26T11:24:18.797Z,4.40
2022-08-26T11:25:18.777Z,4.50
2022-08-26T11:26:35.422Z,3.90
2022-08-26T11:27:19.787Z,4.90
2022-08-26T11:28:18.749Z,4.10
2022-08-26T11:29:18.739Z,4.00
2022-08-26T11:30:18.740Z,4.40
2022-08-26T11:31:18.847Z,4.60
2022-08-26T11:32:18.747Z,4.60
2022-08-26T11:33:18.718Z,4.00
2022-08-26T11:34:18.703Z,4.20
2022-08-26T11:35:18.693Z,4.20
2022-08-26T11:36:18.679Z,4.00
2022-08-26T11:38:18.673Z,5.50
2022-08-26T11:39:18.653Z,5.10
2022-08-26T11:40:18.695Z,4.20
2022-08-26T11:41:18.653Z,4.60
2022-08-26T11:42:20.184Z,4.60
2022-08-26T11:43:18.627Z,4.60
2022-08-26T11:44:18.617Z,4.50
2022-08-26T11:45:18.605Z,5.40
2022-08-26T11:46:18.654Z,5.20
2022-08-26T11:47:18.706Z,5.10
2022-08-26T11:48:18.570Z,5.30
2022-08-26T11:49:18.579Z,5.00
2022-08-26T11:50:18.575Z,5.00
2022-08-26T11:51:18.556Z,4.80
2022-08-26T11:52:18.565Z,5.60
2022-08-26T11:53:18.531Z,5.00
2022-08-26T11:54:30.540Z,6.60
2022-08-26T11:55:19.523Z,5.30
2022-08-26T11:56:18.501Z,5.70
2022-08-26T11:57:18.519Z,5.20
2022-08-26T11:58:18.482Z,5.50
2022-08-26T11:59:18.494Z,5.40
2022-08-26T12:00:22.190Z,5.30
2022-08-26T12:01:18.461Z,5.50
2022-08-26T12:02:18.473Z,5.20
2022-08-26T12:03:18.581Z,5.50
2022-08-26T12:04:18.486Z,5.40
2022-08-26T12:05:18.428Z,5.60
2022-08-26T12:06:18.438Z,5.50
2022-08-26T12:07:24.207Z,5.80
2022-08-26T12:08:19.433Z,5.20
2022-08-26T12:09:18.398Z,5.20
2022-08-26T12:10:18.377Z,4.90
2022-08-26T12:11:18.377Z,5.00
2022-08-26T12:12:18.379Z,5.40
2022-08-26T12:13:18.350Z,5.30
2022-08-26T12:14:18.338Z,5.20
2022-08-26T12:15:18.330Z,5.70
2022-08-26T12:16:18.364Z,5.00
2022-08-26T12:17:18.340Z,5.00
2022-08-26T12:18:18.304Z,4.90
2022-08-26T12:19:19.302Z,5.40
2022-08-26T12:20:18.284Z,4.90
2022-08-26T12:21:18.282Z,5.20
2022-08-26T12:22:18.264Z,5.00
2022-08-26T12:23:18.283Z,5.80
2022-08-26T12:24:18.244Z,6.60
2022-08-26T12:25:18.247Z,6.30
2022-08-26T12:26:18.225Z,6.10
2022-08-26T12:27:18.229Z,5.40
2022-08-26T12:28:18.227Z,6.10
2022-08-26T12:29:26.456Z,6.00
2022-08-26T12:30:19.386Z,6.20
2022-08-26T12:31:18.250Z,5.50
2022-08-26T12:32:18.181Z,5.70
2022-08-26T12:33:22.950Z,5.60
2022-08-26T12:34:19.151Z,6.40
2022-08-26T12:35:18.150Z,5.90
2022-08-26T12:36:18.161Z,5.80
2022-08-26T12:37:18.867Z,6.00
2022-08-26T12:38:18.142Z,6.20
2022-08-26T12:39:18.111Z,5.50
2022-08-26T12:40:18.172Z,5.60
2022-08-26T12:41:18.093Z,6.30
2022-08-26T12:42:18.082Z,5.80
2022-08-26T12:43:18.094Z,5.30
2022-08-26T12:44:18.054Z,5.60
2022-08-26T12:45:18.065Z,6.50
2022-08-26T12:46:18.044Z,6.50
2022-08-26T12:47:23.338Z,6.10
2022-08-26T12:48:19.037Z,6.10
2022-08-26T12:49:19.019Z,5.90
2022-08-26T12:50:18.019Z,6.00
2022-08-26T12:51:18.016Z,6.40
2022-08-26T12:52:17.982Z,5.70
2022-08-26T12:53:18.000Z,6.30
2022-08-26T12:54:17.970Z,7.10
2022-08-26T12:55:17.961Z,6.10
2022-08-26T12:56:17.948Z,6.10
2022-08-26T12:57:17.941Z,6.50
2022-08-26T12:58:17.951Z,6.90
2022-08-26T12:59:17.921Z,6.50
2022-08-26T13:00:17.932Z,5.90
2022-08-26T13:01:17.984Z,6.10
2022-08-26T13:02:17.936Z,6.10
2022-08-26T13:03:17.904Z,6.20
2022-08-26T13:04:17.865Z,6.00
2022-08-26T13:05:17.870Z,6.60